sensor_id;sensor_type;location;lat;lon;timestamp;pressure;altitude;pressure_sealevel;temperature
20736;BMP180;10528;52.124;5.196;2023-02-28T00:01:28;103066.00;;;8.10
20736;BMP180;10528;52.124;5.196;2023-02-28T00:03:55;103063.00;;;8.10
20736;BMP180;10528;52.124;5.196;2023-02-28T00:06:23;103058.00;;;8.20
20736;BMP180;10528;52.124;5.196;2023-02-28T00:08:50;103066.00;;;8.20
20736;BMP180;10528;52.124;5.196;2023-02-28T00:11:17;103064.00;;;8.20
20736;BMP180;10528;52.124;5.196;2023-02-28T00:13:46;103063.00;;;8.30
20736;BMP180;10528;52.124;5.196;2023-02-28T00:16:18;103066.00;;;8.30
20736;BMP180;10528;52.124;5.196;2023-02-28T00:18:46;103063.00;;;8.30
20736;BMP180;10528;52.124;5.196;2023-02-28T00:21:15;103061.00;;;8.40
20736;BMP180;10528;52.124;5.196;2023-02-28T00:23:43;103075.00;;;8.40
20736;BMP180;10528;52.124;5.196;2023-02-28T00:26:10;103065.00;;;8.40
20736;BMP180;10528;52.124;5.196;2023-02-28T00:28:39;103071.00;;;8.40
20736;BMP180;10528;52.124;5.196;2023-02-28T00:31:06;103067.00;;;8.40
20736;BMP180;10528;52.124;5.196;2023-02-28T00:33:34;103063.00;;;8.50
20736;BMP180;10528;52.124;5.196;2023-02-28T00:36:07;103070.00;;;8.50
20736;BMP180;10528;52.124;5.196;2023-02-28T00:38:37;103073.00;;;8.50
20736;BMP180;10528;52.124;5.196;2023-02-28T00:41:04;103065.00;;;8.50
20736;BMP180;10528;52.124;5.196;2023-02-28T00:43:34;103072.00;;;8.60
20736;BMP180;10528;52.124;5.196;2023-02-28T00:46:02;103074.00;;;8.60
20736;BMP180;10528;52.124;5.196;2023-02-28T00:48:30;103067.00;;;8.60
20736;BMP180;10528;52.124;5.196;2023-02-28T00:50:57;103063.00;;;8.60
20736;BMP180;10528;52.124;5.196;2023-02-28T00:53:24;103062.00;;;8.60
20736;BMP180;10528;52.124;5.196;2023-02-28T00:55:51;103068.00;;;8.70
20736;BMP180;10528;52.124;5.196;2023-02-28T00:58:18;103065.00;;;8.70
20736;BMP180;10528;52.124;5.196;2023-02-28T01:00:45;103060.00;;;8.70
20736;BMP180;10528;52.124;5.196;2023-02-28T01:03:18;103059.00;;;8.70
20736;BMP180;10528;52.124;5.196;2023-02-28T01:05:46;103060.00;;;8.70
20736;BMP180;10528;52.124;5.196;2023-02-28T01:08:14;103056.00;;;8.70
20736;BMP180;10528;52.124;5.196;2023-02-28T01:10:41;103070.00;;;8.70
20736;BMP180;10528;52.124;5.196;2023-02-28T01:13:08;103066.00;;;8.80
20736;BMP180;10528;52.124;5.196;2023-02-28T01:15:37;103065.00;;;8.80
20736;BMP180;10528;52.124;5.196;2023-02-28T01:18:04;103062.00;;;8.80
20736;BMP180;10528;52.124;5.196;2023-02-28T01:20:31;103060.00;;;8.80
20736;BMP180;10528;52.124;5.196;2023-02-28T01:22:58;103061.00;;;8.80
20736;BMP180;10528;52.124;5.196;2023-02-28T01:25:25;103067.00;;;8.80
20736;BMP180;10528;52.124;5.196;2023-02-28T01:27:52;103063.00;;;8.80
20736;BMP180;10528;52.124;5.196;2023-02-28T01:30:19;103063.00;;;8.90
20736;BMP180;10528;52.124;5.196;2023-02-28T01:32:46;103051.00;;;8.90
20736;BMP180;10528;52.124;5.196;2023-02-28T01:35:13;103047.00;;;8.90
20736;BMP180;10528;52.124;5.196;2023-02-28T01:37:40;103058.00;;;8.90
20736;BMP180;10528;52.124;5.196;2023-02-28T01:40:08;103051.00;;;8.90
20736;BMP180;10528;52.124;5.196;2023-02-28T01:42:35;103042.00;;;8.90
20736;BMP180;10528;52.124;5.196;2023-02-28T01:45:27;103051.00;;;8.90
20736;BMP180;10528;52.124;5.196;2023-02-28T01:48:06;103044.00;;;8.90
20736;BMP180;10528;52.124;5.196;2023-02-28T01:50:43;103047.00;;;9.00
20736;BMP180;10528;52.124;5.196;2023-02-28T01:53:18;103049.00;;;9.00
20736;BMP180;10528;52.124;5.196;2023-02-28T01:55:50;103057.00;;;9.00
20736;BMP180;10528;52.124;5.196;2023-02-28T01:58:20;103048.00;;;9.00
20736;BMP180;10528;52.124;5.196;2023-02-28T02:00:47;103053.00;;;9.00
20736;BMP180;10528;52.124;5.196;2023-02-28T02:03:18;103047.00;;;9.10
20736;BMP180;10528;52.124;5.196;2023-02-28T02:05:47;103039.00;;;9.10
20736;BMP180;10528;52.124;5.196;2023-02-28T02:08:23;103038.00;;;9.10
20736;BMP180;10528;52.124;5.196;2023-02-28T02:10:56;103035.00;;;9.10
20736;BMP180;10528;52.124;5.196;2023-02-28T02:16:38;103026.00;;;9.10
20736;BMP180;10528;52.124;5.196;2023-02-28T02:22:05;103021.00;;;9.10
20736;BMP180;10528;52.124;5.196;2023-02-28T02:36:33;103018.00;;;9.10
20736;BMP180;10528;52.124;5.196;2023-02-28T02:39:07;103030.00;;;9.10
20736;BMP180;10528;52.124;5.196;2023-02-28T02:41:47;103027.00;;;9.10
20736;BMP180;10528;52.124;5.196;2023-02-28T02:47:04;103029.00;;;9.10
20736;BMP180;10528;52.124;5.196;2023-02-28T02:49:37;103030.00;;;9.10
20736;BMP180;10528;52.124;5.196;2023-02-28T02:52:12;103022.00;;;9.10
20736;BMP180;10528;52.124;5.196;2023-02-28T02:54:46;103024.00;;;9.20
20736;BMP180;10528;52.124;5.196;2023-02-28T02:57:24;103028.00;;;9.20
20736;BMP180;10528;52.124;5.196;2023-02-28T02:59:55;103028.00;;;9.20
20736;BMP180;10528;52.124;5.196;2023-02-28T03:02:23;103026.00;;;9.20
20736;BMP180;10528;52.124;5.196;2023-02-28T03:05:00;103032.00;;;9.20
20736;BMP180;10528;52.124;5.196;2023-02-28T03:07:28;103028.00;;;9.20
20736;BMP180;10528;52.124;5.196;2023-02-28T03:09:57;103027.00;;;9.20
20736;BMP180;10528;52.124;5.196;2023-02-28T03:12:43;103026.00;;;9.20
20736;BMP180;10528;52.124;5.196;2023-02-28T03:15:27;103028.00;;;9.30
20736;BMP180;10528;52.124;5.196;2023-02-28T03:18:08;103040.00;;;9.30
20736;BMP180;10528;52.124;5.196;2023-02-28T03:21:10;103025.00;;;9.30
20736;BMP180;10528;52.124;5.196;2023-02-28T03:23:51;103031.00;;;9.30
20736;BMP180;10528;52.124;5.196;2023-02-28T03:26:25;103025.00;;;9.30
20736;BMP180;10528;52.124;5.196;2023-02-28T03:29:21;103016.00;;;9.30
20736;BMP180;10528;52.124;5.196;2023-02-28T03:31:58;103032.00;;;9.30
20736;BMP180;10528;52.124;5.196;2023-02-28T03:34:33;103026.00;;;9.40
20736;BMP180;10528;52.124;5.196;2023-02-28T03:37:10;103030.00;;;9.40
20736;BMP180;10528;52.124;5.196;2023-02-28T03:39:43;103027.00;;;9.40
20736;BMP180;10528;52.124;5.196;2023-02-28T03:42:19;103021.00;;;9.40
20736;BMP180;10528;52.124;5.196;2023-02-28T03:45:01;103021.00;;;9.40
20736;BMP180;10528;52.124;5.196;2023-02-28T03:47:57;103026.00;;;9.40
20736;BMP180;10528;52.124;5.196;2023-02-28T03:50:42;103024.00;;;9.40
20736;BMP180;10528;52.124;5.196;2023-02-28T03:53:37;103039.00;;;9.40
20736;BMP180;10528;52.124;5.196;2023-02-28T03:56:31;103041.00;;;9.40
20736;BMP180;10528;52.124;5.196;2023-02-28T03:59:14;103030.00;;;9.40
20736;BMP180;10528;52.124;5.196;2023-02-28T04:01:46;103039.00;;;9.40
20736;BMP180;10528;52.124;5.196;2023-02-28T04:04:15;103043.00;;;9.40
20736;BMP180;10528;52.124;5.196;2023-02-28T04:06:44;103041.00;;;9.40
20736;BMP180;10528;52.124;5.196;2023-02-28T04:09:14;103040.00;;;9.40
20736;BMP180;10528;52.124;5.196;2023-02-28T04:11:45;103039.00;;;9.40
20736;BMP180;10528;52.124;5.196;2023-02-28T04:14:13;103042.00;;;9.40
20736;BMP180;10528;52.124;5.196;2023-02-28T04:16:41;103047.00;;;9.40
20736;BMP180;10528;52.124;5.196;2023-02-28T04:19:11;103041.00;;;9.40
20736;BMP180;10528;52.124;5.196;2023-02-28T04:21:45;103045.00;;;9.40
20736;BMP180;10528;52.124;5.196;2023-02-28T04:24:16;103045.00;;;9.40
20736;BMP180;10528;52.124;5.196;2023-02-28T04:26:46;103036.00;;;9.40
20736;BMP180;10528;52.124;5.196;2023-02-28T04:29:23;103047.00;;;9.40
20736;BMP180;10528;52.124;5.196;2023-02-28T04:31:50;103047.00;;;9.40
20736;BMP180;10528;52.124;5.196;2023-02-28T04:34:20;103049.00;;;9.40
20736;BMP180;10528;52.124;5.196;2023-02-28T04:36:48;103050.00;;;9.30
20736;BMP180;10528;52.124;5.196;2023-02-28T04:39:38;103053.00;;;9.30
20736;BMP180;10528;52.124;5.196;2023-02-28T04:42:06;103054.00;;;9.30
20736;BMP180;10528;52.124;5.196;2023-02-28T04:44:32;103057.00;;;9.30
20736;BMP180;10528;52.124;5.196;2023-02-28T04:46:59;103053.00;;;9.30
20736;BMP180;10528;52.124;5.196;2023-02-28T04:49:26;103055.00;;;9.30
20736;BMP180;10528;52.124;5.196;2023-02-28T04:51:53;103056.00;;;9.30
20736;BMP180;10528;52.124;5.196;2023-02-28T04:54:20;103049.00;;;9.30
20736;BMP180;10528;52.124;5.196;2023-02-28T04:56:47;103054.00;;;9.30
20736;BMP180;10528;52.124;5.196;2023-02-28T04:59:17;103059.00;;;9.30
20736;BMP180;10528;52.124;5.196;2023-02-28T05:01:48;103053.00;;;9.30
20736;BMP180;10528;52.124;5.196;2023-02-28T05:04:16;103048.00;;;9.30
20736;BMP180;10528;52.124;5.196;2023-02-28T05:06:44;103052.00;;;9.30
20736;BMP180;10528;52.124;5.196;2023-02-28T05:09:10;103046.00;;;9.30
20736;BMP180;10528;52.124;5.196;2023-02-28T05:11:41;103047.00;;;9.30
20736;BMP180;10528;52.124;5.196;2023-02-28T05:14:13;103045.00;;;9.30
20736;BMP180;10528;52.124;5.196;2023-02-28T05:16:41;103047.00;;;9.30
20736;BMP180;10528;52.124;5.196;2023-02-28T05:19:08;103046.00;;;9.30
20736;BMP180;10528;52.124;5.196;2023-02-28T05:21:41;103052.00;;;9.30
20736;BMP180;10528;52.124;5.196;2023-02-28T05:24:12;103048.00;;;9.30
20736;BMP180;10528;52.124;5.196;2023-02-28T05:26:42;103046.00;;;9.30
20736;BMP180;10528;52.124;5.196;2023-02-28T05:29:10;103045.00;;;9.30
20736;BMP180;10528;52.124;5.196;2023-02-28T05:31:38;103057.00;;;9.30
20736;BMP180;10528;52.124;5.196;2023-02-28T05:34:06;103059.00;;;9.40
20736;BMP180;10528;52.124;5.196;2023-02-28T05:36:33;103058.00;;;9.40
20736;BMP180;10528;52.124;5.196;2023-02-28T05:39:00;103058.00;;;9.40
20736;BMP180;10528;52.124;5.196;2023-02-28T05:41:27;103061.00;;;9.30
20736;BMP180;10528;52.124;5.196;2023-02-28T05:43:55;103055.00;;;9.40
20736;BMP180;10528;52.124;5.196;2023-02-28T05:46:21;103061.00;;;9.30
20736;BMP180;10528;52.124;5.196;2023-02-28T05:48:48;103067.00;;;9.30
20736;BMP180;10528;52.124;5.196;2023-02-28T05:51:16;103067.00;;;9.30
20736;BMP180;10528;52.124;5.196;2023-02-28T05:53:43;103061.00;;;9.30
20736;BMP180;10528;52.124;5.196;2023-02-28T05:56:10;103051.00;;;9.30
20736;BMP180;10528;52.124;5.196;2023-02-28T05:58:37;103054.00;;;9.30
20736;BMP180;10528;52.124;5.196;2023-02-28T06:01:43;103066.00;;;9.20
20736;BMP180;10528;52.124;5.196;2023-02-28T06:04:18;103060.00;;;9.20
20736;BMP180;10528;52.124;5.196;2023-02-28T06:06:57;103068.00;;;9.20
20736;BMP180;10528;52.124;5.196;2023-02-28T06:09:24;103064.00;;;9.20
20736;BMP180;10528;52.124;5.196;2023-02-28T06:11:51;103064.00;;;9.20
20736;BMP180;10528;52.124;5.196;2023-02-28T06:14:20;103073.00;;;9.10
20736;BMP180;10528;52.124;5.196;2023-02-28T06:16:47;103069.00;;;9.10
20736;BMP180;10528;52.124;5.196;2023-02-28T06:19:14;103073.00;;;9.10
20736;BMP180;10528;52.124;5.196;2023-02-28T06:21:42;103066.00;;;9.10
20736;BMP180;10528;52.124;5.196;2023-02-28T06:24:09;103069.00;;;9.10
20736;BMP180;10528;52.124;5.196;2023-02-28T06:26:36;103070.00;;;9.00
20736;BMP180;10528;52.124;5.196;2023-02-28T06:29:03;103067.00;;;9.00
20736;BMP180;10528;52.124;5.196;2023-02-28T06:31:30;103064.00;;;9.00
20736;BMP180;10528;52.124;5.196;2023-02-28T06:33:57;103060.00;;;8.90
20736;BMP180;10528;52.124;5.196;2023-02-28T06:36:24;103063.00;;;8.90
20736;BMP180;10528;52.124;5.196;2023-02-28T06:38:51;103067.00;;;8.90
20736;BMP180;10528;52.124;5.196;2023-02-28T06:41:25;103065.00;;;8.80
20736;BMP180;10528;52.124;5.196;2023-02-28T06:43:53;103066.00;;;8.80
20736;BMP180;10528;52.124;5.196;2023-02-28T06:46:21;103060.00;;;8.80
20736;BMP180;10528;52.124;5.196;2023-02-28T06:48:48;103063.00;;;8.80
20736;BMP180;10528;52.124;5.196;2023-02-28T06:51:20;103080.00;;;8.80
20736;BMP180;10528;52.124;5.196;2023-02-28T06:53:48;103069.00;;;8.80
20736;BMP180;10528;52.124;5.196;2023-02-28T06:56:17;103073.00;;;8.80
20736;BMP180;10528;52.124;5.196;2023-02-28T06:58:51;103086.00;;;8.80
20736;BMP180;10528;52.124;5.196;2023-02-28T07:01:20;103071.00;;;8.80
20736;BMP180;10528;52.124;5.196;2023-02-28T07:03:47;103063.00;;;8.80
20736;BMP180;10528;52.124;5.196;2023-02-28T07:06:23;103069.00;;;8.80
20736;BMP180;10528;52.124;5.196;2023-02-28T07:08:52;103072.00;;;8.80
20736;BMP180;10528;52.124;5.196;2023-02-28T07:11:22;103073.00;;;8.80
20736;BMP180;10528;52.124;5.196;2023-02-28T07:13:50;103071.00;;;8.80
20736;BMP180;10528;52.124;5.196;2023-02-28T07:16:18;103073.00;;;8.90
20736;BMP180;10528;52.124;5.196;2023-02-28T07:18:45;103078.00;;;8.90
20736;BMP180;10528;52.124;5.196;2023-02-28T07:21:12;103081.00;;;8.90
20736;BMP180;10528;52.124;5.196;2023-02-28T07:23:39;103072.00;;;8.90
20736;BMP180;10528;52.124;5.196;2023-02-28T07:26:11;103076.00;;;8.90
20736;BMP180;10528;52.124;5.196;2023-02-28T07:28:39;103068.00;;;8.90
20736;BMP180;10528;52.124;5.196;2023-02-28T07:31:07;103075.00;;;8.90
20736;BMP180;10528;52.124;5.196;2023-02-28T07:33:34;103072.00;;;8.90
20736;BMP180;10528;52.124;5.196;2023-02-28T07:36:09;103087.00;;;9.00
20736;BMP180;10528;52.124;5.196;2023-02-28T07:38:40;103084.00;;;9.00
20736;BMP180;10528;52.124;5.196;2023-02-28T07:41:07;103074.00;;;9.00
20736;BMP180;10528;52.124;5.196;2023-02-28T07:43:35;103076.00;;;9.00
20736;BMP180;10528;52.124;5.196;2023-02-28T07:46:07;103090.00;;;9.00
20736;BMP180;10528;52.124;5.196;2023-02-28T07:48:34;103084.00;;;9.00
20736;BMP180;10528;52.124;5.196;2023-02-28T07:51:02;103083.00;;;9.00
20736;BMP180;10528;52.124;5.196;2023-02-28T07:53:30;103085.00;;;9.00
20736;BMP180;10528;52.124;5.196;2023-02-28T07:55:59;103080.00;;;9.00
20736;BMP180;10528;52.124;5.196;2023-02-28T07:58:28;103084.00;;;9.00
20736;BMP180;10528;52.124;5.196;2023-02-28T08:00:56;103085.00;;;9.00
20736;BMP180;10528;52.124;5.196;2023-02-28T08:03:24;103082.00;;;9.00
20736;BMP180;10528;52.124;5.196;2023-02-28T08:05:51;103097.00;;;9.00
20736;BMP180;10528;52.124;5.196;2023-02-28T08:08:19;103085.00;;;9.00
20736;BMP180;10528;52.124;5.196;2023-02-28T08:10:46;103089.00;;;9.10
20736;BMP180;10528;52.124;5.196;2023-02-28T08:13:13;103099.00;;;9.10
20736;BMP180;10528;52.124;5.196;2023-02-28T08:15:41;103090.00;;;9.00
20736;BMP180;10528;52.124;5.196;2023-02-28T08:18:10;103108.00;;;9.10
20736;BMP180;10528;52.124;5.196;2023-02-28T08:20:36;103101.00;;;9.10
20736;BMP180;10528;52.124;5.196;2023-02-28T08:23:03;103106.00;;;9.10
20736;BMP180;10528;52.124;5.196;2023-02-28T08:25:30;103094.00;;;9.10
20736;BMP180;10528;52.124;5.196;2023-02-28T08:27:58;103102.00;;;9.10
20736;BMP180;10528;52.124;5.196;2023-02-28T08:30:27;103119.00;;;9.20
20736;BMP180;10528;52.124;5.196;2023-02-28T08:32:54;103113.00;;;9.20
20736;BMP180;10528;52.124;5.196;2023-02-28T08:35:22;103096.00;;;9.20
20736;BMP180;10528;52.124;5.196;2023-02-28T08:37:50;103088.00;;;9.20
20736;BMP180;10528;52.124;5.196;2023-02-28T08:40:17;103097.00;;;9.20
20736;BMP180;10528;52.124;5.196;2023-02-28T08:42:47;103106.00;;;9.20
20736;BMP180;10528;52.124;5.196;2023-02-28T08:45:15;103109.00;;;9.20
20736;BMP180;10528;52.124;5.196;2023-02-28T08:47:42;103102.00;;;9.20
20736;BMP180;10528;52.124;5.196;2023-02-28T08:50:09;103118.00;;;9.20
20736;BMP180;10528;52.124;5.196;2023-02-28T08:52:36;103112.00;;;9.20
20736;BMP180;10528;52.124;5.196;2023-02-28T08:55:05;103113.00;;;9.20
20736;BMP180;10528;52.124;5.196;2023-02-28T08:57:32;103109.00;;;9.20
20736;BMP180;10528;52.124;5.196;2023-02-28T08:59:59;103110.00;;;9.30
20736;BMP180;10528;52.124;5.196;2023-02-28T09:02:26;103092.00;;;9.30
20736;BMP180;10528;52.124;5.196;2023-02-28T09:04:53;103080.00;;;9.30
20736;BMP180;10528;52.124;5.196;2023-02-28T09:07:20;103098.00;;;9.40
20736;BMP180;10528;52.124;5.196;2023-02-28T09:09:47;103100.00;;;9.40
20736;BMP180;10528;52.124;5.196;2023-02-28T09:12:26;103103.00;;;9.40
20736;BMP180;10528;52.124;5.196;2023-02-28T09:14:53;103121.00;;;9.50
20736;BMP180;10528;52.124;5.196;2023-02-28T09:17:20;103113.00;;;9.50
20736;BMP180;10528;52.124;5.196;2023-02-28T09:19:50;103107.00;;;9.50
20736;BMP180;10528;52.124;5.196;2023-02-28T09:22:17;103104.00;;;9.50
20736;BMP180;10528;52.124;5.196;2023-02-28T09:24:44;103110.00;;;9.50
20736;BMP180;10528;52.124;5.196;2023-02-28T09:27:11;103098.00;;;9.50
20736;BMP180;10528;52.124;5.196;2023-02-28T09:29:38;103115.00;;;9.60
20736;BMP180;10528;52.124;5.196;2023-02-28T09:32:05;103104.00;;;9.60
20736;BMP180;10528;52.124;5.196;2023-02-28T09:34:33;103120.00;;;9.60
20736;BMP180;10528;52.124;5.196;2023-02-28T09:37:00;103120.00;;;9.60
20736;BMP180;10528;52.124;5.196;2023-02-28T09:39:27;103118.00;;;9.70
20736;BMP180;10528;52.124;5.196;2023-02-28T09:41:56;103109.00;;;9.70
20736;BMP180;10528;52.124;5.196;2023-02-28T09:44:36;103118.00;;;9.80
20736;BMP180;10528;52.124;5.196;2023-02-28T09:47:34;103117.00;;;9.90
20736;BMP180;10528;52.124;5.196;2023-02-28T09:50:28;103110.00;;;10.00
20736;BMP180;10528;52.124;5.196;2023-02-28T09:52:57;103121.00;;;10.00
20736;BMP180;10528;52.124;5.196;2023-02-28T09:55:39;103112.00;;;10.10
20736;BMP180;10528;52.124;5.196;2023-02-28T09:58:26;103118.00;;;10.20
20736;BMP180;10528;52.124;5.196;2023-02-28T10:01:12;103116.00;;;10.20
20736;BMP180;10528;52.124;5.196;2023-02-28T10:04:03;103125.00;;;10.30
20736;BMP180;10528;52.124;5.196;2023-02-28T10:06:46;103117.00;;;10.40
20736;BMP180;10528;52.124;5.196;2023-02-28T10:09:26;103114.00;;;10.50
20736;BMP180;10528;52.124;5.196;2023-02-28T10:12:00;103119.00;;;10.60
20736;BMP180;10528;52.124;5.196;2023-02-28T10:14:32;103112.00;;;10.70
20736;BMP180;10528;52.124;5.196;2023-02-28T10:17:10;103111.00;;;10.80
20736;BMP180;10528;52.124;5.196;2023-02-28T10:25:29;103111.00;;;10.90
20736;BMP180;10528;52.124;5.196;2023-02-28T10:30:42;103105.00;;;11.00
20736;BMP180;10528;52.124;5.196;2023-02-28T10:33:28;103106.00;;;11.00
20736;BMP180;10528;52.124;5.196;2023-02-28T10:35:55;103092.00;;;11.10
20736;BMP180;10528;52.124;5.196;2023-02-28T10:38:49;103097.00;;;11.10
20736;BMP180;10528;52.124;5.196;2023-02-28T10:41:29;103103.00;;;11.20
20736;BMP180;10528;52.124;5.196;2023-02-28T10:44:23;103092.00;;;11.20
20736;BMP180;10528;52.124;5.196;2023-02-28T10:46:51;103093.00;;;11.30
20736;BMP180;10528;52.124;5.196;2023-02-28T10:49:26;103088.00;;;11.40
20736;BMP180;10528;52.124;5.196;2023-02-28T10:51:59;103092.00;;;11.40
20736;BMP180;10528;52.124;5.196;2023-02-28T10:54:34;103091.00;;;11.50
20736;BMP180;10528;52.124;5.196;2023-02-28T10:57:20;103084.00;;;11.60
20736;BMP180;10528;52.124;5.196;2023-02-28T10:59:53;103082.00;;;11.60
20736;BMP180;10528;52.124;5.196;2023-02-28T11:02:36;103083.00;;;11.70
20736;BMP180;10528;52.124;5.196;2023-02-28T11:05:30;103072.00;;;11.70
20736;BMP180;10528;52.124;5.196;2023-02-28T11:08:15;103066.00;;;11.70
20736;BMP180;10528;52.124;5.196;2023-02-28T11:10:59;103079.00;;;11.70
20736;BMP180;10528;52.124;5.196;2023-02-28T11:13:36;103061.00;;;11.80
20736;BMP180;10528;52.124;5.196;2023-02-28T11:16:09;103060.00;;;11.80
20736;BMP180;10528;52.124;5.196;2023-02-28T11:18:53;103068.00;;;11.80
20736;BMP180;10528;52.124;5.196;2023-02-28T11:21:27;103059.00;;;11.70
20736;BMP180;10528;52.124;5.196;2023-02-28T11:24:12;103064.00;;;11.70
20736;BMP180;10528;52.124;5.196;2023-02-28T11:26:47;103057.00;;;11.60
20736;BMP180;10528;52.124;5.196;2023-02-28T11:29:27;103060.00;;;11.60
20736;BMP180;10528;52.124;5.196;2023-02-28T11:32:20;103060.00;;;11.60
20736;BMP180;10528;52.124;5.196;2023-02-28T11:37:39;103054.00;;;11.60
20736;BMP180;10528;52.124;5.196;2023-02-28T11:40:18;103057.00;;;11.60
20736;BMP180;10528;52.124;5.196;2023-02-28T11:43:01;103058.00;;;11.70
20736;BMP180;10528;52.124;5.196;2023-02-28T11:48:33;103040.00;;;11.70
20736;BMP180;10528;52.124;5.196;2023-02-28T11:51:32;103038.00;;;11.80
20736;BMP180;10528;52.124;5.196;2023-02-28T11:54:28;103046.00;;;11.80
20736;BMP180;10528;52.124;5.196;2023-02-28T11:57:09;103047.00;;;11.80
20736;BMP180;10528;52.124;5.196;2023-02-28T12:05:51;103044.00;;;11.80
20736;BMP180;10528;52.124;5.196;2023-02-28T12:14:48;103030.00;;;11.90
20736;BMP180;10528;52.124;5.196;2023-02-28T12:17:38;103031.00;;;12.00
20736;BMP180;10528;52.124;5.196;2023-02-28T12:23:45;103032.00;;;12.10
20736;BMP180;10528;52.124;5.196;2023-02-28T12:26:38;103036.00;;;12.10
20736;BMP180;10528;52.124;5.196;2023-02-28T12:29:28;103019.00;;;12.10
20736;BMP180;10528;52.124;5.196;2023-02-28T12:32:06;103022.00;;;12.10
20736;BMP180;10528;52.124;5.196;2023-02-28T12:34:46;103026.00;;;12.10
20736;BMP180;10528;52.124;5.196;2023-02-28T12:40:22;103014.00;;;12.10
20736;BMP180;10528;52.124;5.196;2023-02-28T12:42:56;103015.00;;;12.00
20736;BMP180;10528;52.124;5.196;2023-02-28T12:46:07;103010.00;;;12.10
20736;BMP180;10528;52.124;5.196;2023-02-28T12:48:52;103003.00;;;12.10
20736;BMP180;10528;52.124;5.196;2023-02-28T12:51:21;103014.00;;;12.00
20736;BMP180;10528;52.124;5.196;2023-02-28T12:54:10;103012.00;;;12.00
20736;BMP180;10528;52.124;5.196;2023-02-28T12:56:44;103008.00;;;12.10
20736;BMP180;10528;52.124;5.196;2023-02-28T12:59:27;102999.00;;;12.10
20736;BMP180;10528;52.124;5.196;2023-02-28T13:11:01;102997.00;;;12.00
20736;BMP180;10528;52.124;5.196;2023-02-28T13:13:33;102983.00;;;12.00
20736;BMP180;10528;52.124;5.196;2023-02-28T13:16:08;102988.00;;;12.00
20736;BMP180;10528;52.124;5.196;2023-02-28T13:18:46;102987.00;;;12.10
20736;BMP180;10528;52.124;5.196;2023-02-28T13:21:30;102984.00;;;12.10
20736;BMP180;10528;52.124;5.196;2023-02-28T13:24:08;102984.00;;;12.10
20736;BMP180;10528;52.124;5.196;2023-02-28T13:42:47;102972.00;;;12.00
20736;BMP180;10528;52.124;5.196;2023-02-28T13:45:28;102986.00;;;11.80
20736;BMP180;10528;52.124;5.196;2023-02-28T13:48:15;102975.00;;;11.80
20736;BMP180;10528;52.124;5.196;2023-02-28T13:50:43;102958.00;;;11.90
20736;BMP180;10528;52.124;5.196;2023-02-28T13:56:23;102958.00;;;11.80
20736;BMP180;10528;52.124;5.196;2023-02-28T13:59:14;102961.00;;;11.80
20736;BMP180;10528;52.124;5.196;2023-02-28T14:02:25;102957.00;;;11.80
20736;BMP180;10528;52.124;5.196;2023-02-28T14:05:18;102958.00;;;11.90
20736;BMP180;10528;52.124;5.196;2023-02-28T14:07:53;102957.00;;;11.90
20736;BMP180;10528;52.124;5.196;2023-02-28T14:10:41;102954.00;;;11.90
20736;BMP180;10528;52.124;5.196;2023-02-28T14:13:44;102947.00;;;11.90
20736;BMP180;10528;52.124;5.196;2023-02-28T14:16:27;102941.00;;;11.90
20736;BMP180;10528;52.124;5.196;2023-02-28T14:19:02;102942.00;;;11.90
20736;BMP180;10528;52.124;5.196;2023-02-28T14:21:38;102940.00;;;11.90
20736;BMP180;10528;52.124;5.196;2023-02-28T14:36:33;102944.00;;;11.90
20736;BMP180;10528;52.124;5.196;2023-02-28T14:39:11;102941.00;;;11.90
20736;BMP180;10528;52.124;5.196;2023-02-28T14:41:43;102945.00;;;12.00
20736;BMP180;10528;52.124;5.196;2023-02-28T14:44:26;102934.00;;;12.00
20736;BMP180;10528;52.124;5.196;2023-02-28T14:46:59;102936.00;;;12.00
20736;BMP180;10528;52.124;5.196;2023-02-28T14:49:44;102938.00;;;12.00
20736;BMP180;10528;52.124;5.196;2023-02-28T14:54:39;102939.00;;;12.10
20736;BMP180;10528;52.124;5.196;2023-02-28T14:57:23;102933.00;;;12.10
20736;BMP180;10528;52.124;5.196;2023-02-28T15:00:22;102927.00;;;12.10
20736;BMP180;10528;52.124;5.196;2023-02-28T15:02:49;102930.00;;;12.10
20736;BMP180;10528;52.124;5.196;2023-02-28T15:08:15;102945.00;;;12.20
20736;BMP180;10528;52.124;5.196;2023-02-28T15:11:03;102937.00;;;12.10
20736;BMP180;10528;52.124;5.196;2023-02-28T15:13:48;102934.00;;;12.10
20736;BMP180;10528;52.124;5.196;2023-02-28T15:16:22;102938.00;;;12.10
20736;BMP180;10528;52.124;5.196;2023-02-28T15:18:59;102931.00;;;12.10
20736;BMP180;10528;52.124;5.196;2023-02-28T15:21:33;102931.00;;;12.10
20736;BMP180;10528;52.124;5.196;2023-02-28T15:27:12;102928.00;;;12.10
20736;BMP180;10528;52.124;5.196;2023-02-28T15:29:51;102933.00;;;12.10
20736;BMP180;10528;52.124;5.196;2023-02-28T15:32:32;102932.00;;;12.20
20736;BMP180;10528;52.124;5.196;2023-02-28T15:35:35;102937.00;;;12.20
20736;BMP180;10528;52.124;5.196;2023-02-28T15:38:04;102940.00;;;12.20
20736;BMP180;10528;52.124;5.196;2023-02-28T15:40:44;102954.00;;;12.10
20736;BMP180;10528;52.124;5.196;2023-02-28T15:43:18;102942.00;;;12.10
20736;BMP180;10528;52.124;5.196;2023-02-28T15:46:12;102946.00;;;12.20
20736;BMP180;10528;52.124;5.196;2023-02-28T15:51:15;102939.00;;;12.10
20736;BMP180;10528;52.124;5.196;2023-02-28T15:53:52;102940.00;;;12.10
20736;BMP180;10528;52.124;5.196;2023-02-28T15:56:31;102935.00;;;12.10
20736;BMP180;10528;52.124;5.196;2023-02-28T15:59:04;102930.00;;;12.10
20736;BMP180;10528;52.124;5.196;2023-02-28T16:01:37;102931.00;;;12.00
20736;BMP180;10528;52.124;5.196;2023-02-28T16:04:18;102922.00;;;12.10
20736;BMP180;10528;52.124;5.196;2023-02-28T16:09:27;102925.00;;;12.00
20736;BMP180;10528;52.124;5.196;2023-02-28T16:12:00;102925.00;;;12.00
20736;BMP180;10528;52.124;5.196;2023-02-28T16:14:29;102934.00;;;11.90
20736;BMP180;10528;52.124;5.196;2023-02-28T16:17:05;102932.00;;;11.90
20736;BMP180;10528;52.124;5.196;2023-02-28T16:19:32;102927.00;;;11.90
20736;BMP180;10528;52.124;5.196;2023-02-28T16:22:00;102929.00;;;11.90
20736;BMP180;10528;52.124;5.196;2023-02-28T16:24:27;102930.00;;;11.90
20736;BMP180;10528;52.124;5.196;2023-02-28T16:26:56;102937.00;;;11.90
20736;BMP180;10528;52.124;5.196;2023-02-28T16:29:31;102924.00;;;11.90